Time,TemperatureF,DewpointF,PressureIn,WindDirection,WindDirectionDegrees,WindSpeedMPH,WindSpeedGustMPH,Humidity,HourlyPrecipIn,Conditions,Clouds,dailyrainin,SoftwareType,DateUTC
2013-01-13 00:00:00,47.1,27.9,29.91,NNE,30,7.6,10.5,47,0.00,,OVC,0.00,VWS V14.00,2013-01-13 05:00:00,
2013-01-13 00:01:00,46.9,27.8,29.91,NNE,22,6.3,6.3,47,0.00,,OVC,0.00,VWS V14.00,2013-01-13 05:01:00,
2013-01-13 00:03:00,46.9,28.3,29.94,NNE,18,10.5,11.0,48,0.00,,OVC,0.00,VWS V14.00,2013-01-13 05:03:00,
2013-01-13 00:05:00,46.9,28.3,29.94,NNW,341,8.7,10.5,48,0.00,,OVC,0.00,VWS V14.00,2013-01-13 05:05:00,
2013-01-13 00:10:00,46.8,27.6,29.94,NNW,333,8.1,12.8,47,0.00,,OVC,0.00,VWS V14.00,2013-01-13 05:10:00,
2013-01-13 00:15:00,46.6,27.5,29.94,North,349,7.6,8.3,47,0.00,,OVC,0.00,VWS V14.00,2013-01-13 05:15:00,
2013-01-13 00:20:00,46.4,27.8,29.94,North,3,6.7,8.3,48,0.00,,OVC,0.00,VWS V14.00,2013-01-13 05:20:00,
2013-01-13 00:25:00,46.4,27.8,29.94,NNW,335,15.4,15.4,48,0.00,,OVC,0.00,VWS V14.00,2013-01-13 05:25:00,
2013-01-13 00:30:00,46.2,27.6,29.94,NNW,339,10.5,10.5,48,0.00,,OVC,0.00,VWS V14.00,2013-01-13 05:30:00,
2013-01-13 00:35:00,46.0,27.5,29.97,NNW,342,10.5,10.5,48,0.00,,OVC,0.00,VWS V14.00,2013-01-13 05:35:00,
2013-01-13 00:40:00,46.0,27.5,29.97,NNE,31,10.5,12.3,48,0.00,,OVC,0.00,VWS V14.00,2013-01-13 05:40:00,
2013-01-13 00:44:00,45.9,27.3,29.97,WNW,292,14.5,16.3,48,0.00,,OVC,0.00,VWS V14.00,2013-01-13 05:44:00,
2013-01-13 00:50:00,45.3,26.3,29.97,North,353,8.3,13.2,47,0.00,,OVC,0.00,VWS V14.00,2013-01-13 05:50:00,
2013-01-13 00:54:00,45.1,26.1,29.97,North,353,10.5,12.8,47,0.00,,OVC,0.00,VWS V14.00,2013-01-13 05:54:00,
2013-01-13 00:59:00,44.8,25.8,29.97,North,6,11.0,11.0,47,0.00,,OVC,0.00,VWS V14.00,2013-01-13 05:59:00,
2013-01-13 01:04:00,44.6,25.1,30.00,North,357,7.6,7.6,46,0.00,,OVC,0.00,VWS V14.00,2013-01-13 06:04:00,
2013-01-13 01:09:00,44.2,25.3,30.00,North,357,7.6,8.1,47,0.00,,OVC,0.00,VWS V14.00,2013-01-13 06:09:00,
2013-01-13 01:14:00,44.1,25.1,30.00,NNW,329,7.6,8.1,47,0.00,,OVC,0.00,VWS V14.00,2013-01-13 06:14:00,
2013-01-13 01:19:00,43.9,25.0,30.00,North,11,8.3,10.5,47,0.00,,OVC,0.00,VWS V14.00,2013-01-13 06:19:00,
2013-01-13 01:24:00,43.7,24.8,30.00,North,353,13.2,17.0,47,0.00,,OVC,0.00,VWS V14.00,2013-01-13 06:24:00,
2013-01-13 01:29:00,43.5,25.1,30.00,North,357,6.3,11.0,48,0.00,,OVC,0.00,VWS V14.00,2013-01-13 06:29:00,
2013-01-13 01:34:00,43.3,24.5,30.00,NNW,328,7.2,15.4,47,0.00,,OVC,0.00,VWS V14.00,2013-01-13 06:34:00,
2013-01-13 01:40:00,43.2,24.3,30.00,North,0,4.0,11.0,47,0.00,,OVC,0.00,VWS V14.00,2013-01-13 06:40:00,
2013-01-13 01:45:00,43.0,24.6,30.00,NNW,346,6.3,8.3,48,0.00,,OVC,0.00,VWS V14.00,2013-01-13 06:45:00,
2013-01-13 01:50:00,43.0,24.6,30.00,North,0,8.7,8.7,48,0.00,,OVC,0.00,VWS V14.00,2013-01-13 06:50:00,
2013-01-13 01:55:00,43.0,25.1,30.00,North,0,8.7,11.4,49,0.00,,OVC,0.00,VWS V14.00,2013-01-13 06:55:00,
2013-01-13 02:00:00,42.6,24.8,30.00,North,350,8.1,8.1,49,0.00,,OVC,0.05,VWS V14.00,2013-01-13 07:00:00,
2013-01-13 02:05:00,42.6,24.8,30.00,NNW,332,7.2,8.3,49,0.00,,OVC,0.00,VWS V14.00,2013-01-13 07:05:00,
2013-01-13 02:10:00,42.4,25.1,30.00,NNW,331,8.3,8.3,50,0.00,,OVC,0.00,VWS V14.00,2013-01-13 07:10:00,
2013-01-13 02:15:00,42.1,24.3,30.00,North,357,6.3,11.0,49,0.00,,OVC,0.00,VWS V14.00,2013-01-13 07:15:00,
2013-01-13 02:20:00,41.7,24.5,30.00,North,357,9.2,11.0,50,0.00,,OVC,0.00,VWS V14.00,2013-01-13 07:20:00,
2013-01-13 02:25:00,41.5,24.3,30.00,North,4,8.3,8.3,50,0.00,,OVC,0.00,VWS V14.00,2013-01-13 07:25:00,
2013-01-13 02:30:00,41.4,24.1,30.00,NNE,18,10.1,10.1,50,0.00,,OVC,0.00,VWS V14.00,2013-01-13 07:30:00,
2013-01-13 02:35:00,41.2,24.0,30.00,North,10,6.7,11.0,50,0.00,,OVC,0.00,VWS V14.00,2013-01-13 07:35:00,
2013-01-13 02:40:00,41.0,23.3,30.00,NNW,336,16.3,16.3,49,0.00,,OVC,0.00,VWS V14.00,2013-01-13 07:40:00,
2013-01-13 02:45:00,41.0,23.8,30.00,NW,316,11.4,14.1,50,0.00,,OVC,0.00,VWS V14.00,2013-01-13 07:45:00,
2013-01-13 02:50:00,41.0,23.8,30.03,North,353,5.4,12.3,50,0.00,,OVC,0.00,VWS V14.00,2013-01-13 07:50:00,
2013-01-13 02:55:00,41.2,24.0,30.03,NNW,335,10.1,10.1,50,0.00,,OVC,0.00,VWS V14.00,2013-01-13 07:55:00,
2013-01-13 03:00:00,41.2,24.0,30.03,NW,318,7.2,11.0,50,0.00,,OVC,0.00,VWS V14.00,2013-01-13 08:00:00,
2013-01-13 03:05:00,41.2,23.5,30.03,North,353,12.8,15.9,49,0.00,,OVC,0.00,VWS V14.00,2013-01-13 08:05:00,
2013-01-13 03:10:00,41.0,23.3,30.03,NNW,342,15.4,15.4,49,0.00,,OVC,0.00,VWS V14.00,2013-01-13 08:10:00,
2013-01-13 03:15:00,41.0,23.3,30.03,North,353,9.6,15.9,49,0.00,,OVC,0.00,VWS V14.00,2013-01-13 08:15:00,
2013-01-13 03:20:00,41.0,23.3,30.03,NNE,12,8.1,15.0,49,0.00,,OVC,0.00,VWS V14.00,2013-01-13 08:20:00,
2013-01-13 03:25:00,40.8,23.6,30.03,NNE,14,6.3,8.7,50,0.00,,OVC,0.00,VWS V14.00,2013-01-13 08:25:00,
2013-01-13 03:30:00,41.0,23.8,30.03,NW,325,9.6,10.1,50,0.00,,OVC,0.00,VWS V14.00,2013-01-13 08:30:00,
2013-01-13 03:35:00,40.8,23.1,30.03,North,357,8.3,12.8,49,0.00,,OVC,0.00,VWS V14.00,2013-01-13 08:35:00,
2013-01-13 03:40:00,40.6,23.0,30.03,North,0,7.6,12.3,49,0.00,,OVC,0.00,VWS V14.00,2013-01-13 08:40:00,
2013-01-13 03:45:00,40.6,23.0,30.03,North,353,7.6,8.3,49,0.00,,OVC,0.00,VWS V14.00,2013-01-13 08:45:00,
2013-01-13 03:50:00,40.6,23.0,30.03,NNW,335,10.1,12.8,49,0.00,,OVC,0.00,VWS V14.00,2013-01-13 08:50:00,
2013-01-13 03:55:00,40.5,22.8,30.03,North,0,8.3,10.1,49,0.00,,OVC,0.00,VWS V14.00,2013-01-13 08:55:00,
2013-01-13 03:59:00,40.5,22.3,30.03,NNW,346,4.0,7.6,48,0.00,,OVC,0.00,VWS V14.00,2013-01-13 08:59:00,
2013-01-13 04:04:00,40.5,22.3,30.03,North,8,4.0,8.3,48,0.00,,OVC,0.00,VWS V14.00,2013-01-13 09:04:00,
2013-01-13 04:09:00,40.5,22.3,30.03,North,357,8.7,12.3,48,0.00,,OVC,0.00,VWS V14.00,2013-01-13 09:09:00,
2013-01-13 04:14:00,40.3,22.2,30.03,NW,312,10.1,11.0,48,0.00,,OVC,0.00,VWS V14.00,2013-01-13 09:14:00,
2013-01-13 04:19:00,40.5,22.8,30.06,North,5,8.1,11.0,49,0.00,,OVC,0.00,VWS V14.00,2013-01-13 09:19:00,
2013-01-13 04:24:00,40.5,22.3,30.06,North,10,8.1,11.0,48,0.00,,OVC,0.00,VWS V14.00,2013-01-13 09:24:00,
2013-01-13 04:29:00,40.5,22.3,30.06,North,353,6.3,10.1,48,0.00,,OVC,0.00,VWS V14.00,2013-01-13 09:29:00,
2013-01-13 04:34:00,40.3,22.2,30.06,NNW,327,6.3,8.7,48,0.00,,OVC,0.00,VWS V14.00,2013-01-13 09:34:00,
2013-01-13 04:39:00,40.3,22.2,30.06,NNW,345,8.1,12.3,48,0.00,,OVC,0.00,VWS V14.00,2013-01-13 09:39:00,
2013-01-13 04:44:00,40.3,22.2,30.06,NNW,337,6.7,8.7,48,0.00,,OVC,0.00,VWS V14.00,2013-01-13 09:44:00,
2013-01-13 04:49:00,40.3,21.7,30.06,NNW,340,13.2,15.4,47,0.00,,OVC,0.00,VWS V14.00,2013-01-13 09:49:00,
2013-01-13 04:54:00,40.1,22.0,30.06,North,0,10.1,10.1,48,0.00,,OVC,0.00,VWS V14.00,2013-01-13 09:54:00,
2013-01-13 04:59:00,40.1,21.5,30.06,North,353,7.6,10.5,47,0.00,,OVC,0.00,VWS V14.00,2013-01-13 09:59:00,
2013-01-13 05:04:00,39.9,21.3,30.06,NW,323,6.3,6.7,47,0.00,,OVC,0.00,VWS V14.00,2013-01-13 10:04:00,
2013-01-13 05:09:00,39.9,21.8,30.06,North,349,8.3,10.1,48,0.00,,OVC,0.00,VWS V14.00,2013-01-13 10:09:00,
2013-01-13 05:14:00,39.9,21.3,30.06,NW,319,10.5,10.5,47,0.00,,OVC,0.00,VWS V14.00,2013-01-13 10:14:00,
2013-01-13 05:19:00,39.9,21.3,30.06,NW,315,8.1,10.1,47,0.00,,OVC,0.00,VWS V14.00,2013-01-13 10:19:00,
2013-01-13 05:24:00,39.9,21.3,30.06,NW,310,8.3,8.3,47,0.00,,OVC,0.00,VWS V14.00,2013-01-13 10:24:00,
2013-01-13 05:29:00,39.7,21.2,30.06,NW,316,13.2,13.2,47,0.00,,OVC,0.00,VWS V14.00,2013-01-13 10:29:00,
2013-01-13 05:34:00,39.7,21.2,30.06,North,0,5.8,10.1,47,0.00,,OVC,0.00,VWS V14.00,2013-01-13 10:34:00,
2013-01-13 05:39:00,39.7,21.2,30.06,NW,316,7.6,7.6,47,0.00,,OVC,0.00,VWS V14.00,2013-01-13 10:39:00,
2013-01-13 05:44:00,39.7,21.2,30.06,NNE,22,6.3,8.7,47,0.00,,OVC,0.00,VWS V14.00,2013-01-13 10:44:00,
2013-01-13 05:49:00,39.6,21.0,30.06,NNW,327,11.0,11.0,47,0.00,,OVC,0.00,VWS V14.00,2013-01-13 10:49:00,
2013-01-13 05:54:00,39.6,21.0,30.06,NW,315,5.4,11.0,47,0.00,,OVC,0.00,VWS V14.00,2013-01-13 10:54:00,
2013-01-13 05:59:00,39.4,20.8,30.06,NNW,344,8.1,11.0,47,0.00,,OVC,0.00,VWS V14.00,2013-01-13 10:59:00,
2013-01-13 06:04:00,39.4,20.8,30.06,North,353,5.8,8.1,47,0.00,,OVC,0.00,VWS V14.00,2013-01-13 11:04:00,
2013-01-13 06:09:00,39.4,20.3,30.06,NNE,12,10.5,10.5,46,0.00,,OVC,0.00,VWS V14.00,2013-01-13 11:09:00,
2013-01-13 06:14:00,39.4,20.3,30.06,NNW,345,5.8,10.5,46,0.00,,OVC,0.00,VWS V14.00,2013-01-13 11:14:00,
2013-01-13 06:19:00,39.2,20.2,30.06,NW,311,8.1,9.6,46,0.00,,OVC,0.00,VWS V14.00,2013-01-13 11:19:00,
2013-01-13 06:24:00,39.2,19.7,30.06,NNW,337,10.5,12.3,45,0.00,,OVC,0.00,VWS V14.00,2013-01-13 11:24:00,
2013-01-13 06:29:00,39.2,20.2,30.06,NNE,23,6.3,8.1,46,0.00,,OVC,0.00,VWS V14.00,2013-01-13 11:29:00,
2013-01-13 06:34:00,39.0,20.0,30.06,NW,325,11.0,11.0,46,0.00,,OVC,0.00,VWS V14.00,2013-01-13 11:34:00,
2013-01-13 06:39:00,39.0,20.5,30.06,NNE,12,8.1,8.1,47,0.00,,OVC,0.00,VWS V14.00,2013-01-13 11:39:00,
2013-01-13 06:44:00,39.0,20.5,30.06,NNE,21,11.0,11.0,47,0.00,,OVC,0.00,VWS V14.00,2013-01-13 11:44:00,
2013-01-13 06:49:00,39.0,20.0,30.06,NW,309,8.3,11.0,46,0.00,,OVC,0.00,VWS V14.00,2013-01-13 11:49:00,
2013-01-13 06:54:00,38.8,19.8,30.06,NNW,336,9.6,10.1,46,0.00,,OVC,0.00,VWS V14.00,2013-01-13 11:54:00,
2013-01-13 06:59:00,38.8,19.8,30.06,NNW,330,5.8,6.3,46,0.00,,OVC,0.00,VWS V14.00,2013-01-13 11:59:00,
2013-01-13 07:04:00,38.8,19.8,30.09,NNW,345,8.3,8.3,46,0.00,,OVC,0.00,VWS V14.00,2013-01-13 12:04:00,
2013-01-13 07:09:00,38.7,19.7,30.09,North,0,5.8,13.2,46,0.00,,OVC,0.00,VWS V14.00,2013-01-13 12:09:00,
2013-01-13 07:14:00,38.7,19.7,30.09,NW,317,13.6,13.6,46,0.00,,OVC,0.00,VWS V14.00,2013-01-13 12:14:00,
2013-01-13 07:19:00,38.5,19.0,30.09,NW,312,13.2,13.2,45,0.00,,OVC,0.00,VWS V14.00,2013-01-13 12:19:00,
2013-01-13 07:24:00,38.3,19.4,30.09,North,353,8.3,10.1,46,0.00,,OVC,0.00,VWS V14.00,2013-01-13 12:24:00,
2013-01-13 07:29:00,38.3,19.4,30.09,North,350,5.8,11.0,46,0.00,,OVC,0.00,VWS V14.00,2013-01-13 12:29:00,
2013-01-13 07:34:00,38.1,19.2,30.12,NW,318,6.3,11.0,46,0.00,,OVC,0.00,VWS V14.00,2013-01-13 12:34:00,
2013-01-13 07:39:00,37.9,19.0,30.12,NNE,20,11.0,11.0,46,0.00,,OVC,0.00,VWS V14.00,2013-01-13 12:39:00,
2013-01-13 07:44:00,37.6,18.2,30.12,North,357,11.9,11.9,45,0.00,,OVC,0.00,VWS V14.00,2013-01-13 12:44:00,
2013-01-13 07:49:00,37.6,18.7,30.12,NNW,335,10.1,10.1,46,0.00,,OVC,0.00,VWS V14.00,2013-01-13 12:49:00,
2013-01-13 07:54:00,37.6,18.7,30.12,NW,325,8.7,10.5,46,0.00,,OVC,0.00,VWS V14.00,2013-01-13 12:54:00,
2013-01-13 07:59:00,37.6,19.2,30.12,North,1,8.3,8.7,47,0.00,,OVC,0.00,VWS V14.00,2013-01-13 12:59:00,
2013-01-13 08:04:00,37.6,18.7,30.12,NNE,23,5.8,8.7,46,0.00,,OVC,0.00,VWS V14.00,2013-01-13 13:04:00,
2013-01-13 08:09:00,37.4,18.5,30.12,NNW,327,10.5,12.8,46,0.00,,OVC,0.00,VWS V14.00,2013-01-13 13:09:00,
2013-01-13 08:14:00,37.4,18.5,30.12,North,0,8.7,8.7,46,0.00,,OVC,0.00,VWS V14.00,2013-01-13 13:14:00,
2013-01-13 08:19:00,37.4,19.0,30.15,NW,325,6.3,6.3,47,0.00,,OVC,0.00,VWS V14.00,2013-01-13 13:19:00,
2013-01-13 08:24:00,37.2,18.4,30.15,NNE,17,8.1,10.5,46,0.00,,OVC,0.00,VWS V14.00,2013-01-13 13:24:00,
2013-01-13 08:29:00,37.2,18.4,30.15,NNW,345,6.3,6.3,46,0.00,,OVC,0.00,VWS V14.00,2013-01-13 13:29:00,
2013-01-13 08:34:00,37.0,18.2,30.15,NW,319,8.7,9.6,46,0.00,,OVC,0.00,VWS V14.00,2013-01-13 13:34:00,
2013-01-13 08:39:00,37.0,18.7,30.15,North,3,11.0,11.0,47,0.00,,OVC,0.00,VWS V14.00,2013-01-13 13:39:00,
2013-01-13 08:44:00,37.0,18.7,30.15,North,349,7.6,7.6,47,0.00,,OVC,0.00,VWS V14.00,2013-01-13 13:44:00,
2013-01-13 08:49:00,37.0,18.7,30.15,NNW,333,10.1,14.5,47,0.00,,OVC,0.00,VWS V14.00,2013-01-13 13:49:00,
2013-01-13 08:54:00,36.9,18.0,30.15,NNE,33,15.0,15.0,46,0.00,,OVC,0.00,VWS V14.00,2013-01-13 13:54:00,
2013-01-13 08:59:00,36.9,18.0,30.15,North,357,8.7,13.2,46,0.00,,OVC,0.00,VWS V14.00,2013-01-13 13:59:00,
2013-01-13 09:04:00,36.9,18.0,30.18,NE,50,6.3,6.3,46,0.00,,OVC,0.00,VWS V14.00,2013-01-13 14:04:00,
2013-01-13 09:09:00,36.7,18.4,30.18,NW,326,5.8,8.3,47,0.00,,OVC,0.00,VWS V14.00,2013-01-13 14:09:00,
2013-01-13 09:14:00,36.7,17.9,30.18,NW,308,12.3,12.3,46,0.00,,OVC,0.00,VWS V14.00,2013-01-13 14:14:00,
2013-01-13 09:19:00,36.5,17.7,30.18,North,353,8.7,11.0,46,0.00,,OVC,0.00,VWS V14.00,2013-01-13 14:19:00,
2013-01-13 09:24:00,36.3,17.5,30.18,North,357,8.1,10.5,46,0.00,,OVC,0.00,VWS V14.00,2013-01-13 14:24:00,
2013-01-13 09:29:00,36.3,18.0,30.18,NNW,335,5.4,6.3,47,0.00,,OVC,0.00,VWS V14.00,2013-01-13 14:29:00,
2013-01-13 09:34:00,36.1,17.9,30.18,North,3,8.1,12.3,47,0.00,,OVC,0.00,VWS V14.00,2013-01-13 14:34:00,
2013-01-13 09:39:00,36.1,17.9,30.18,NNW,331,11.0,11.0,47,0.00,,OVC,0.00,VWS V14.00,2013-01-13 14:39:00,
2013-01-13 09:44:00,36.0,17.2,30.18,North,357,7.6,11.0,46,0.00,,OVC,0.00,VWS V14.00,2013-01-13 14:44:00,
2013-01-13 09:49:00,36.1,17.4,30.21,North,0,5.4,10.5,46,0.00,,OVC,0.00,VWS V14.00,2013-01-13 14:49:00,
2013-01-13 09:54:00,36.3,17.0,30.21,North,0,10.5,11.9,45,0.00,,OVC,0.00,VWS V14.00,2013-01-13 14:54:00,
2013-01-13 09:59:00,36.1,16.9,30.21,North,0,6.7,11.0,45,0.00,,OVC,0.00,VWS V14.00,2013-01-13 14:59:00,
2013-01-13 10:04:00,36.1,16.9,30.21,NNW,327,6.3,11.0,45,0.00,,OVC,0.00,VWS V14.00,2013-01-13 15:04:00,
2013-01-13 10:09:00,36.0,16.7,30.21,NNW,335,10.5,11.0,45,0.00,,OVC,0.00,VWS V14.00,2013-01-13 15:09:00,
2013-01-13 10:14:00,36.1,17.4,30.21,NW,320,8.3,8.3,46,0.00,,OVC,0.00,VWS V14.00,2013-01-13 15:14:00,
2013-01-13 10:19:00,36.3,17.0,30.21,WNW,294,5.8,13.2,45,0.00,,OVC,0.00,VWS V14.00,2013-01-13 15:19:00,
2013-01-13 10:24:00,36.3,17.0,30.21,WNW,301,7.6,13.2,45,0.00,,OVC,0.00,VWS V14.00,2013-01-13 15:24:00,
2013-01-13 10:29:00,36.3,17.0,30.21,NW,318,8.1,10.1,45,0.00,,OVC,0.00,VWS V14.00,2013-01-13 15:29:00,
2013-01-13 10:34:00,36.3,16.5,30.21,North,9,7.6,8.3,44,0.00,,OVC,0.00,VWS V14.00,2013-01-13 15:34:00,
2013-01-13 10:39:00,36.3,17.0,30.21,North,7,10.5,10.5,45,0.00,,OVC,0.00,VWS V14.00,2013-01-13 15:39:00,
2013-01-13 10:44:00,36.5,16.7,30.21,North,353,12.8,12.8,44,0.00,,OVC,0.00,VWS V14.00,2013-01-13 15:44:00,
2013-01-13 10:49:00,36.7,16.8,30.21,North,353,8.3,15.0,44,0.00,,OVC,0.00,VWS V14.00,2013-01-13 15:49:00,
2013-01-13 10:54:00,36.9,16.5,30.21,NNE,19,3.6,8.7,43,0.00,,OVC,0.00,VWS V14.00,2013-01-13 15:54:00,
2013-01-13 10:59:00,37.0,16.6,30.21,NW,311,12.8,15.0,43,0.00,,OVC,0.00,VWS V14.00,2013-01-13 15:59:00,
2013-01-13 11:04:00,37.8,17.3,30.21,North,0,3.6,7.2,43,0.00,,OVC,0.00,VWS V14.00,2013-01-13 16:04:00,
2013-01-13 11:09:00,38.1,17.1,30.21,North,6,4.0,4.9,42,0.00,,OVC,0.00,VWS V14.00,2013-01-13 16:09:00,
2013-01-13 11:14:00,38.3,16.7,30.21,NNE,25,8.7,13.2,41,0.00,,OVC,0.00,VWS V14.00,2013-01-13 16:14:00,
2013-01-13 11:19:00,38.5,17.4,30.24,North,0,8.3,10.1,42,0.00,,OVC,0.00,VWS V14.00,2013-01-13 16:19:00,
2013-01-13 11:24:00,38.5,16.8,30.24,North,357,8.3,12.8,41,0.00,,OVC,0.00,VWS V14.00,2013-01-13 16:24:00,
2013-01-13 11:29:00,38.7,17.0,30.24,NNE,14,7.6,8.3,41,0.00,,OVC,0.00,VWS V14.00,2013-01-13 16:29:00,
2013-01-13 11:34:00,39.2,17.5,30.24,NNW,333,12.3,12.3,41,0.00,,OVC,0.00,VWS V14.00,2013-01-13 16:34:00,
2013-01-13 11:39:00,39.4,17.7,30.24,NNW,335,8.3,12.8,41,0.00,,OVC,0.00,VWS V14.00,2013-01-13 16:39:00,
2013-01-13 11:44:00,39.6,17.8,30.24,North,357,11.0,15.4,41,0.00,,OVC,0.00,VWS V14.00,2013-01-13 16:44:00,
2013-01-13 11:49:00,39.7,17.4,30.24,NE,34,10.5,13.2,40,0.00,,OVC,0.00,VWS V14.00,2013-01-13 16:49:00,
2013-01-13 11:54:00,39.9,17.6,30.24,North,6,8.1,10.5,40,0.00,,OVC,0.00,VWS V14.00,2013-01-13 16:54:00,
2013-01-13 11:59:00,40.1,18.3,30.24,North,353,8.1,8.1,41,0.00,,OVC,0.00,VWS V14.00,2013-01-13 16:59:00,
2013-01-13 12:04:00,40.6,18.8,30.21,NNE,25,8.3,14.1,41,0.00,,OVC,0.00,VWS V14.00,2013-01-13 17:04:00,
2013-01-13 12:09:00,41.0,18.5,30.21,North,357,7.6,8.7,40,0.00,,OVC,0.00,VWS V14.00,2013-01-13 17:09:00,
2013-01-13 12:14:00,40.8,18.4,30.21,North,7,8.3,8.3,40,0.00,,OVC,0.00,VWS V14.00,2013-01-13 17:14:00,
2013-01-13 12:19:00,40.8,18.4,30.21,North,353,12.8,12.8,40,0.00,,OVC,0.00,VWS V14.00,2013-01-13 17:19:00,
2013-01-13 12:24:00,41.0,18.5,30.21,North,7,5.4,10.5,40,0.00,,OVC,0.00,VWS V14.00,2013-01-13 17:24:00,
2013-01-13 12:29:00,41.4,18.9,30.21,NNE,33,11.0,11.0,40,0.00,,OVC,0.00,VWS V14.00,2013-01-13 17:29:00,
2013-01-13 12:34:00,41.5,19.0,30.21,North,6,11.0,11.0,40,0.00,,OVC,0.00,VWS V14.00,2013-01-13 17:34:00,
2013-01-13 12:39:00,41.9,19.4,30.21,North,4,8.1,10.1,40,0.00,,OVC,0.00,VWS V14.00,2013-01-13 17:39:00,
2013-01-13 12:44:00,42.3,19.7,30.21,NNE,18,4.9,8.3,40,0.00,,OVC,0.00,VWS V14.00,2013-01-13 17:44:00,
2013-01-13 12:49:00,42.4,19.8,30.21,North,0,11.0,11.0,40,0.00,,OVC,0.00,VWS V14.00,2013-01-13 17:49:00,
2013-01-13 12:54:00,42.8,19.6,30.21,NNE,33,8.7,10.1,39,0.00,,OVC,0.00,VWS V14.00,2013-01-13 17:54:00,
2013-01-13 12:59:00,42.8,19.6,30.21,NNE,26,4.0,13.6,39,0.00,,OVC,0.00,VWS V14.00,2013-01-13 17:59:00,
2013-01-13 13:04:00,42.4,19.2,30.21,NNW,337,8.3,8.7,39,0.00,,OVC,0.00,VWS V14.00,2013-01-13 18:04:00,
2013-01-13 13:09:00,42.8,19.6,30.21,NW,312,10.5,13.2,39,0.00,,OVC,0.00,VWS V14.00,2013-01-13 18:09:00,
2013-01-13 13:14:00,43.2,19.9,30.21,NNW,331,8.1,8.1,39,0.00,,OVC,0.00,VWS V14.00,2013-01-13 18:14:00,
2013-01-13 13:19:00,43.7,20.4,30.18,North,0,5.4,6.3,39,0.00,,OVC,0.00,VWS V14.00,2013-01-13 18:19:00,
2013-01-13 13:24:00,44.1,20.7,30.18,North,4,12.8,12.8,39,0.00,,OVC,0.00,VWS V14.00,2013-01-13 18:24:00,
2013-01-13 13:29:00,44.1,20.7,30.18,NW,306,6.3,11.0,39,0.00,,OVC,0.00,VWS V14.00,2013-01-13 18:29:00,
2013-01-13 13:34:00,44.1,20.7,30.18,North,0,7.6,13.2,39,0.00,,OVC,0.00,VWS V14.00,2013-01-13 18:34:00,
2013-01-13 13:39:00,44.2,20.9,30.18,NNE,30,15.9,15.9,39,0.00,,OVC,0.00,VWS V14.00,2013-01-13 18:39:00,
2013-01-13 13:44:00,44.6,21.2,30.18,West,262,10.1,15.0,39,0.00,,OVC,0.00,VWS V14.00,2013-01-13 18:44:00,
2013-01-13 13:49:00,44.8,20.7,30.18,North,0,9.2,9.2,38,0.00,,OVC,0.00,VWS V14.00,2013-01-13 18:49:00,
2013-01-13 13:54:00,45.0,20.9,30.18,North,353,7.2,8.1,38,0.00,,OVC,0.00,VWS V14.00,2013-01-13 18:54:00,
2013-01-13 13:59:00,45.3,21.2,30.18,NNE,16,12.8,12.8,38,0.00,,OVC,0.00,VWS V14.00,2013-01-13 18:59:00,
2013-01-13 14:04:00,45.1,21.1,30.18,North,357,13.2,13.2,38,0.00,,OVC,0.00,VWS V14.00,2013-01-13 19:04:00,
2013-01-13 14:09:00,45.5,21.4,30.18,WNW,292,9.6,9.6,38,0.00,,OVC,0.00,VWS V14.00,2013-01-13 19:09:00,
2013-01-13 14:14:00,46.0,21.9,30.18,North,349,9.6,9.6,38,0.00,,OVC,0.00,VWS V14.00,2013-01-13 19:14:00,
2013-01-13 14:19:00,46.4,22.2,30.15,NW,320,11.0,11.0,38,0.00,,OVC,0.00,VWS V14.00,2013-01-13 19:19:00,
2013-01-13 14:24:00,46.4,22.2,30.15,NNW,342,11.0,11.0,38,0.00,,OVC,0.00,VWS V14.00,2013-01-13 19:24:00,
2013-01-13 14:29:00,46.8,22.5,30.15,North,0,8.7,8.7,38,0.00,,OVC,0.00,VWS V14.00,2013-01-13 19:29:00,
2013-01-13 14:34:00,46.9,22.7,30.15,NW,322,8.7,8.7,38,0.00,,OVC,0.00,VWS V14.00,2013-01-13 19:34:00,
2013-01-13 14:39:00,47.1,22.8,30.15,North,7,7.6,10.1,38,0.00,,OVC,0.00,VWS V14.00,2013-01-13 19:39:00,
2013-01-13 14:44:00,47.3,23.0,30.15,NNW,340,6.3,8.7,38,0.00,,OVC,0.00,VWS V14.00,2013-01-13 19:44:00,
2013-01-13 14:49:00,47.7,23.3,30.15,North,353,10.1,10.1,38,0.00,,OVC,0.00,VWS V14.00,2013-01-13 19:49:00,
2013-01-13 14:54:00,47.8,23.5,30.15,NE,46,8.7,10.5,38,0.00,,OVC,0.00,VWS V14.00,2013-01-13 19:54:00,
2013-01-13 14:59:00,48.0,23.0,30.15,NNW,329,8.1,9.6,37,0.00,,OVC,0.00,VWS V14.00,2013-01-13 19:59:00,
2013-01-13 15:04:00,48.2,23.2,30.15,NNE,12,10.1,10.1,37,0.00,,OVC,0.00,VWS V14.00,2013-01-13 20:04:00,
2013-01-13 15:09:00,48.6,23.5,30.15,North,0,10.1,10.1,37,0.00,,OVC,0.00,VWS V14.00,2013-01-13 20:09:00,
2013-01-13 15:14:00,48.7,23.6,30.15,NNE,28,8.7,10.1,37,0.00,,OVC,0.00,VWS V14.00,2013-01-13 20:14:00,
2013-01-13 15:19:00,48.9,23.8,30.15,NNE,28,12.3,12.8,37,0.00,,OVC,0.00,VWS V14.00,2013-01-13 20:19:00,
2013-01-13 15:24:00,49.3,24.1,30.15,NNE,20,10.5,12.8,37,0.00,,OVC,0.00,VWS V14.00,2013-01-13 20:24:00,
2013-01-13 15:29:00,49.3,24.1,30.15,NNE,32,11.4,12.3,37,0.00,,OVC,0.00,VWS V14.00,2013-01-13 20:29:00,
2013-01-13 15:34:00,49.5,24.3,30.15,NNE,28,12.3,12.3,37,0.00,,OVC,0.00,VWS V14.00,2013-01-13 20:34:00,
2013-01-13 15:39:00,49.6,24.5,30.15,NE,38,5.8,5.8,37,0.00,,OVC,0.00,VWS V14.00,2013-01-13 20:39:00,
2013-01-13 15:44:00,49.5,24.3,30.15,NE,55,8.1,8.1,37,0.00,,OVC,0.00,VWS V14.00,2013-01-13 20:44:00,
2013-01-13 15:49:00,49.5,24.3,30.15,NNE,25,5.8,6.3,37,0.00,,OVC,0.00,VWS V14.00,2013-01-13 20:49:00,
2013-01-13 15:54:00,49.5,24.3,30.15,NNW,334,4.9,10.1,37,0.00,,OVC,0.00,VWS V14.00,2013-01-13 20:54:00,
2013-01-13 15:59:00,49.6,24.5,30.15,NE,46,12.8,12.8,37,0.00,,OVC,0.00,VWS V14.00,2013-01-13 20:59:00,
2013-01-13 16:04:00,49.6,24.5,30.15,North,8,10.1,10.1,37,0.00,,OVC,0.00,VWS V14.00,2013-01-13 21:04:00,
2013-01-13 16:09:00,49.6,24.5,30.15,North,8,11.9,11.9,37,0.00,,OVC,0.00,VWS V14.00,2013-01-13 21:09:00,
2013-01-13 16:14:00,49.8,24.6,30.15,NNE,29,11.9,15.0,37,0.00,,OVC,0.00,VWS V14.00,2013-01-13 21:14:00,
2013-01-13 16:19:00,49.6,24.5,30.15,North,2,10.5,10.5,37,0.00,,OVC,0.00,VWS V14.00,2013-01-13 21:19:00,
2013-01-13 16:24:00,49.8,24.6,30.15,NNE,32,11.4,11.4,37,0.00,,OVC,0.00,VWS V14.00,2013-01-13 21:24:00,
2013-01-13 16:29:00,49.8,24.6,30.15,NNE,30,17.9,17.9,37,0.00,,OVC,0.00,VWS V14.00,2013-01-13 21:29:00,
2013-01-13 16:34:00,49.8,24.0,30.15,NNE,22,15.9,15.9,36,0.00,,OVC,0.00,VWS V14.00,2013-01-13 21:34:00,
2013-01-13 16:39:00,49.5,23.6,30.15,NNE,25,8.3,9.2,36,0.00,,OVC,0.00,VWS V14.00,2013-01-13 21:39:00,
2013-01-13 16:44:00,49.5,23.6,30.15,NE,44,15.9,15.9,36,0.00,,OVC,0.00,VWS V14.00,2013-01-13 21:44:00,
2013-01-13 16:49:00,49.6,23.8,30.15,NE,48,10.5,12.8,36,0.00,,OVC,0.00,VWS V14.00,2013-01-13 21:49:00,
2013-01-13 16:54:00,49.5,23.0,30.15,NNE,16,6.3,7.6,35,0.00,,OVC,0.00,VWS V14.00,2013-01-13 21:54:00,
2013-01-13 16:59:00,49.3,22.8,30.15,NE,34,7.6,10.5,35,0.00,,OVC,0.00,VWS V14.00,2013-01-13 21:59:00,
2013-01-13 17:04:00,49.1,22.6,30.15,NNE,17,10.1,10.1,35,0.00,,OVC,0.00,VWS V14.00,2013-01-13 22:04:00,
2013-01-13 17:09:00,49.1,22.6,30.15,North,5,10.5,11.0,35,0.00,,OVC,0.00,VWS V14.00,2013-01-13 22:09:00,
2013-01-13 17:14:00,48.9,21.8,30.15,North,10,8.3,8.3,34,0.00,,OVC,0.00,VWS V14.00,2013-01-13 22:14:00,
2013-01-13 17:19:00,48.9,22.5,30.15,NE,41,11.0,11.0,35,0.00,,OVC,0.00,VWS V14.00,2013-01-13 22:19:00,
2013-01-13 17:24:00,48.7,21.6,30.15,NNE,18,12.8,12.8,34,0.00,,OVC,0.00,VWS V14.00,2013-01-13 22:24:00,
2013-01-13 17:29:00,48.6,21.5,30.15,NNE,25,6.3,8.7,34,0.00,,OVC,0.00,VWS V14.00,2013-01-13 22:29:00,
2013-01-13 17:34:00,48.6,21.5,30.15,NNE,12,8.7,10.1,34,0.00,,OVC,0.00,VWS V14.00,2013-01-13 22:34:00,
2013-01-13 17:39:00,48.4,22.0,30.15,NE,35,8.3,8.3,35,0.00,,OVC,0.00,VWS V14.00,2013-01-13 22:39:00,
2013-01-13 17:44:00,48.4,21.3,30.15,NNE,14,8.7,13.2,34,0.00,,OVC,0.00,VWS V14.00,2013-01-13 22:44:00,
2013-01-13 17:49:00,48.2,21.2,30.18,NNW,342,10.1,11.0,34,0.00,,OVC,0.00,VWS V14.00,2013-01-13 22:49:00,
2013-01-13 17:54:00,48.2,21.2,30.18,NE,42,10.1,10.1,34,0.00,,OVC,0.00,VWS V14.00,2013-01-13 22:54:00,
2013-01-13 17:59:00,48.0,21.0,30.18,NNE,28,8.7,11.9,34,0.00,,OVC,0.00,VWS V14.00,2013-01-13 22:59:00,
2013-01-13 18:04:00,47.8,20.9,30.18,NE,34,11.9,12.8,34,0.00,,OVC,0.00,VWS V14.00,2013-01-13 23:04:00,
2013-01-13 18:09:00,47.7,20.7,30.18,NE,42,12.3,12.3,34,0.00,,OVC,0.00,VWS V14.00,2013-01-13 23:09:00,
2013-01-13 18:14:00,47.5,20.5,30.18,NE,50,11.0,12.3,34,0.00,,OVC,0.00,VWS V14.00,2013-01-13 23:14:00,
2013-01-13 18:19:00,47.1,20.9,30.18,NE,42,11.0,11.4,35,0.00,,OVC,0.00,VWS V14.00,2013-01-13 23:19:00,
2013-01-13 18:24:00,46.8,20.6,30.18,NNE,22,8.1,10.1,35,0.00,,OVC,0.00,VWS V14.00,2013-01-13 23:24:00,
2013-01-13 18:29:00,46.6,19.7,30.18,NNE,32,8.7,9.6,34,0.00,,OVC,0.00,VWS V14.00,2013-01-13 23:29:00,
2013-01-13 18:34:00,46.4,20.2,30.18,NNE,29,8.7,8.7,35,0.00,,OVC,0.00,VWS V14.00,2013-01-13 23:34:00,
2013-01-13 18:39:00,46.2,20.1,30.18,NNE,29,8.3,8.3,35,0.00,,OVC,0.00,VWS V14.00,2013-01-13 23:39:00,
2013-01-13 18:44:00,45.9,20.4,30.18,NNE,30,8.3,8.3,36,0.00,,OVC,0.00,VWS V14.00,2013-01-13 23:44:00,
2013-01-13 18:49:00,45.5,20.1,30.18,NE,36,6.3,7.6,36,0.00,,OVC,0.00,VWS V14.00,2013-01-13 23:49:00,
2013-01-13 18:54:00,45.1,20.4,30.18,NNE,30,8.3,8.3,37,0.00,,OVC,0.00,VWS V14.00,2013-01-13 23:54:00,
2013-01-13 18:59:00,44.8,20.1,30.18,NNE,33,6.7,7.6,37,0.00,,OVC,0.00,VWS V14.00,2013-01-13 23:59:00,
2013-01-13 19:04:00,44.6,20.0,30.18,NNE,31,7.6,7.6,37,0.00,,OVC,0.00,VWS V14.00,2013-01-14 00:04:00,
2013-01-13 19:09:00,44.2,20.3,30.18,NNE,30,8.1,8.3,38,0.00,,OVC,0.00,VWS V14.00,2013-01-14 00:09:00,
2013-01-13 19:14:00,44.1,20.1,30.18,NNE,16,7.6,7.6,38,0.00,,OVC,0.00,VWS V14.00,2013-01-14 00:14:00,
2013-01-13 19:19:00,43.9,19.9,30.18,NNE,32,7.6,8.7,38,0.00,,OVC,0.00,VWS V14.00,2013-01-14 00:19:00,
2013-01-13 19:24:00,43.7,19.8,30.18,NNE,31,5.8,6.3,38,0.00,,OVC,0.00,VWS V14.00,2013-01-14 00:24:00,
2013-01-13 19:29:00,43.5,19.6,30.18,NNE,24,6.7,6.7,38,0.00,,OVC,0.00,VWS V14.00,2013-01-14 00:29:00,
2013-01-13 19:34:00,43.3,19.5,30.18,NNE,14,5.4,5.4,38,0.00,,OVC,0.00,VWS V14.00,2013-01-14 00:34:00,
2013-01-13 19:39:00,43.0,19.1,30.18,North,6,5.8,5.8,38,0.00,,OVC,0.00,VWS V14.00,2013-01-14 00:39:00,
2013-01-13 19:44:00,42.6,19.4,30.18,NE,36,4.0,5.8,39,0.00,,OVC,0.00,VWS V14.00,2013-01-14 00:44:00,
2013-01-13 19:49:00,42.4,19.2,30.18,NNE,13,5.8,6.3,39,0.00,,OVC,0.00,VWS V14.00,2013-01-14 00:49:00,
2013-01-13 19:54:00,42.1,18.9,30.18,NNE,32,6.3,7.2,39,0.00,,OVC,0.00,VWS V14.00,2013-01-14 00:54:00,
2013-01-13 19:59:00,42.1,18.9,30.18,NNE,21,10.1,10.1,39,0.00,,OVC,0.00,VWS V14.00,2013-01-14 00:59:00,
2013-01-13 20:04:00,42.1,18.9,30.18,NNE,31,8.1,9.2,39,0.00,,OVC,0.00,VWS V14.00,2013-01-14 01:04:00,
2013-01-13 20:09:00,41.9,18.8,30.18,NNE,22,8.3,8.3,39,0.00,,OVC,0.00,VWS V14.00,2013-01-14 01:09:00,
2013-01-13 20:14:00,41.9,18.8,30.18,NNE,19,6.3,6.3,39,0.00,,OVC,0.00,VWS V14.00,2013-01-14 01:14:00,
2013-01-13 20:19:00,41.7,18.6,30.18,NNE,30,7.2,8.1,39,0.00,,OVC,0.00,VWS V14.00,2013-01-14 01:19:00,
2013-01-13 20:24:00,41.7,18.6,30.18,NE,44,8.3,8.3,39,0.00,,OVC,0.00,VWS V14.00,2013-01-14 01:24:00,
2013-01-13 20:29:00,41.5,18.4,30.18,NNE,26,7.6,7.6,39,0.00,,OVC,0.00,VWS V14.00,2013-01-14 01:29:00,
2013-01-13 20:34:00,41.5,18.4,30.21,NNE,29,5.4,6.3,39,0.00,,OVC,0.00,VWS V14.00,2013-01-14 01:34:00,
2013-01-13 20:39:00,41.2,18.1,30.21,NNE,21,7.6,7.6,39,0.00,,OVC,0.00,VWS V14.00,2013-01-14 01:39:00,
2013-01-13 20:44:00,41.0,18.5,30.21,NNE,27,5.8,6.7,40,0.00,,OVC,0.00,VWS V14.00,2013-01-14 01:44:00,
2013-01-13 20:49:00,41.0,18.5,30.21,NNE,28,5.4,5.8,40,0.00,,OVC,0.00,VWS V14.00,2013-01-14 01:49:00,
2013-01-13 20:54:00,40.8,18.4,30.21,NNE,13,5.4,6.3,40,0.00,,OVC,0.00,VWS V14.00,2013-01-14 01:54:00,
2013-01-13 20:59:00,40.6,18.2,30.21,North,357,5.8,5.8,40,0.00,,OVC,0.00,VWS V14.00,2013-01-14 01:59:00,
2013-01-13 21:04:00,40.5,18.1,30.21,NNE,24,7.6,7.6,40,0.00,,OVC,0.00,VWS V14.00,2013-01-14 02:04:00,
2013-01-13 21:09:00,40.5,18.1,30.21,NNE,29,5.4,5.4,40,0.00,,OVC,0.00,VWS V14.00,2013-01-14 02:09:00,
2013-01-13 21:14:00,40.3,18.5,30.21,NNE,26,6.3,6.7,41,0.00,,OVC,0.00,VWS V14.00,2013-01-14 02:14:00,
2013-01-13 21:19:00,40.3,18.5,30.21,NE,42,10.1,10.1,41,0.00,,OVC,0.00,VWS V14.00,2013-01-14 02:19:00,
2013-01-13 21:24:00,40.3,18.5,30.21,NNE,19,5.8,8.3,41,0.00,,OVC,0.00,VWS V14.00,2013-01-14 02:24:00,
2013-01-13 21:29:00,40.1,18.3,30.21,NE,38,8.1,8.1,41,0.00,,OVC,0.00,VWS V14.00,2013-01-14 02:29:00,
2013-01-13 21:34:00,39.9,18.1,30.21,NNE,27,5.4,5.4,41,0.00,,OVC,0.00,VWS V14.00,2013-01-14 02:34:00,
2013-01-13 21:39:00,39.7,18.0,30.21,NNE,22,6.3,6.3,41,0.00,,OVC,0.00,VWS V14.00,2013-01-14 02:39:00,
2013-01-13 21:44:00,39.6,17.8,30.21,NNE,24,6.3,8.1,41,0.00,,OVC,0.00,VWS V14.00,2013-01-14 02:44:00,
2013-01-13 21:49:00,39.4,17.7,30.21,NNE,29,6.3,6.3,41,0.00,,OVC,0.00,VWS V14.00,2013-01-14 02:49:00,
2013-01-13 21:54:00,39.2,17.5,30.21,NNE,28,4.9,5.4,41,0.00,,OVC,0.00,VWS V14.00,2013-01-14 02:54:00,
2013-01-13 21:59:00,39.2,17.5,30.21,NNE,18,3.1,5.4,41,0.00,,OVC,0.00,VWS V14.00,2013-01-14 02:59:00,
2013-01-13 22:04:00,38.8,17.7,30.21,North,9,4.0,5.4,42,0.00,,OVC,0.00,VWS V14.00,2013-01-14 03:04:00,
2013-01-13 22:09:00,38.8,17.7,30.21,NNE,27,6.3,6.3,42,0.00,,OVC,0.00,VWS V14.00,2013-01-14 03:09:00,
2013-01-13 22:14:00,38.7,17.6,30.21,North,9,5.4,5.4,42,0.00,,OVC,0.00,VWS V14.00,2013-01-14 03:14:00,
2013-01-13 22:19:00,38.7,17.6,30.24,NNE,31,3.6,4.0,42,0.00,,OVC,0.00,VWS V14.00,2013-01-14 03:19:00,
2013-01-13 22:24:00,38.5,17.4,30.24,North,10,3.6,3.6,42,0.00,,OVC,0.00,VWS V14.00,2013-01-14 03:24:00,
2013-01-13 22:29:00,38.3,17.8,30.24,NNE,21,4.0,5.4,43,0.00,,OVC,0.00,VWS V14.00,2013-01-14 03:29:00,
2013-01-13 22:34:00,38.1,17.6,30.24,NNE,16,4.9,4.9,43,0.00,,OVC,0.00,VWS V14.00,2013-01-14 03:34:00,
2013-01-13 22:39:00,37.9,17.5,30.24,NNE,22,5.8,5.8,43,0.00,,OVC,0.00,VWS V14.00,2013-01-14 03:39:00,
2013-01-13 22:44:00,37.8,17.8,30.24,North,10,7.6,7.6,44,0.00,,OVC,0.00,VWS V14.00,2013-01-14 03:44:00,
2013-01-13 22:49:00,37.8,17.8,30.24,NNE,30,6.3,8.1,44,0.00,,OVC,0.00,VWS V14.00,2013-01-14 03:49:00,
2013-01-13 22:54:00,37.6,17.7,30.24,NNE,14,4.9,8.3,44,0.00,,OVC,0.00,VWS V14.00,2013-01-14 03:54:00,
2013-01-13 22:59:00,37.6,17.7,30.24,NNE,27,8.3,8.3,44,0.00,,OVC,0.00,VWS V14.00,2013-01-14 03:59:00,
2013-01-13 23:04:00,37.6,17.7,30.24,NNE,25,6.3,8.1,44,0.00,,OVC,0.00,VWS V14.00,2013-01-14 04:04:00,
2013-01-13 23:09:00,37.6,17.7,30.24,NNE,26,6.3,6.3,44,0.00,,OVC,0.00,VWS V14.00,2013-01-14 04:09:00,
2013-01-13 23:14:00,37.4,17.5,30.24,NNE,29,7.2,7.2,44,0.00,,OVC,0.00,VWS V14.00,2013-01-14 04:14:00,
2013-01-13 23:19:00,37.4,17.5,30.24,NNE,23,9.6,9.6,44,0.00,,OVC,0.00,VWS V14.00,2013-01-14 04:19:00,
2013-01-13 23:24:00,37.4,17.5,30.24,NNE,29,6.3,8.1,44,0.00,,OVC,0.00,VWS V14.00,2013-01-14 04:24:00,
2013-01-13 23:29:00,37.2,17.3,30.24,NNE,33,13.2,13.2,44,0.00,,OVC,0.00,VWS V14.00,2013-01-14 04:29:00,
2013-01-13 23:34:00,37.0,17.2,30.24,NNE,21,9.2,9.2,44,0.00,,OVC,0.00,VWS V14.00,2013-01-14 04:34:00,
2013-01-13 23:39:00,36.9,17.0,30.24,NNE,21,6.7,8.1,44,0.00,,OVC,0.00,VWS V14.00,2013-01-14 04:39:00,
2013-01-13 23:44:00,36.9,17.0,30.24,NNE,23,11.0,11.0,44,0.00,,OVC,0.00,VWS V14.00,2013-01-14 04:44:00,
2013-01-13 23:49:00,36.7,16.8,30.24,NNE,32,7.6,7.6,44,0.00,,OVC,0.00,VWS V14.00,2013-01-14 04:49:00,
2013-01-13 23:54:00,36.7,16.8,30.24,NNE,30,8.3,8.3,44,0.00,,OVC,0.00,VWS V14.00,2013-01-14 04:54:00,
2013-01-13 23:59:00,36.5,16.7,30.24,NE,38,6.3,8.3,44,0.00,,OVC,0.00,VWS V14.00,2013-01-14 04:59:00,